createdAt,value
2019-03-28T00:00:56.497Z,101119.19
2019-03-28T00:03:24.564Z,101112.45
2019-03-28T00:05:52.430Z,101113.72
2019-03-28T00:08:20.195Z,101113.17
2019-03-28T00:10:47.957Z,101111.65
2019-03-28T00:13:15.820Z,101117.52
2019-03-28T00:15:43.592Z,101114.52
2019-03-28T00:18:11.453Z,101120.53
2019-03-28T00:20:39.215Z,101122.98
2019-03-28T00:23:24.284Z,101117.63
2019-03-28T00:25:52.153Z,101119.70
2019-03-28T00:28:19.919Z,101115.67
2019-03-28T00:30:47.681Z,101121.21
2019-03-28T00:33:15.336Z,101120.11
2019-03-28T00:35:43.216Z,101117.77
2019-03-28T00:38:11.171Z,101128.73
2019-03-28T00:40:38.939Z,101125.86
2019-03-28T00:43:06.704Z,101128.52
2019-03-28T00:45:34.464Z,101130.90
2019-03-28T00:48:02.127Z,101131.02
2019-03-28T00:50:32.859Z,101131.25
2019-03-28T00:52:59.702Z,101135.47
2019-03-28T00:55:27.366Z,101139.91
2019-03-28T00:57:55.023Z,101139.83
2019-03-28T01:00:23.506Z,101145.41
2019-03-28T01:02:51.426Z,101138.37
2019-03-28T01:05:19.442Z,101139.54
2019-03-28T01:07:47.388Z,101142.88
2019-03-28T01:10:15.175Z,101135.08
2019-03-28T01:12:42.937Z,101136.67
2019-03-28T01:15:10.704Z,101140.99
2019-03-28T01:17:38.469Z,101147.11
2019-03-28T01:20:07.364Z,101146.39
2019-03-28T01:22:35.120Z,101151.80
2019-03-28T01:25:03.909Z,101153.29
2019-03-28T01:27:31.574Z,101155.65
2019-03-28T01:29:59.334Z,101157.55
2019-03-28T01:32:27.126Z,101168.66
2019-03-28T01:34:55.169Z,101169.61
2019-03-28T01:37:22.930Z,101165.94
2019-03-28T01:39:50.697Z,101177.57
2019-03-28T01:42:18.456Z,101183.78
2019-03-28T01:44:46.223Z,101180.58
2019-03-28T01:47:13.881Z,101195.92
2019-03-28T01:49:41.747Z,101194.69
2019-03-28T01:52:10.437Z,101199.63
2019-03-28T01:54:38.096Z,101193.64
2019-03-28T01:57:11.130Z,101201.55
2019-03-28T01:59:35.161Z,101206.95
2019-03-28T02:02:03.641Z,101211.34
2019-03-28T02:04:31.300Z,101209.77
2019-03-28T02:06:59.233Z,101220.37
2019-03-28T02:09:27.247Z,101216.75
2019-03-28T02:11:55.007Z,101215.77
2019-03-28T02:14:22.756Z,101229.59
2019-03-28T02:16:50.533Z,101226.26
2019-03-28T02:19:18.296Z,101232.32
2019-03-28T02:21:46.059Z,101239.51
2019-03-28T02:24:14.943Z,101234.38
2019-03-28T02:26:42.708Z,101241.78
2019-03-28T02:29:10.479Z,101244.95
2019-03-28T02:31:38.239Z,101242.16
2019-03-28T02:34:06.008Z,101251.13
2019-03-28T02:36:33.871Z,101255.59
2019-03-28T02:39:01.733Z,101254.53
2019-03-28T02:41:30.831Z,101260.58
2019-03-28T02:43:58.593Z,101270.28
2019-03-28T02:46:26.365Z,101263.71
2019-03-28T02:48:54.126Z,101263.34
2019-03-28T02:51:22.199Z,101267.57
2019-03-28T02:53:51.125Z,101270.87
2019-03-28T02:56:18.651Z,101273.27
2019-03-28T02:58:46.507Z,101279.27
2019-03-28T03:01:14.989Z,101282.62
2019-03-28T03:03:42.753Z,101284.98
2019-03-28T03:06:10.619Z,101281.84
2019-03-28T03:08:38.487Z,101284.33
2019-03-28T03:11:06.353Z,101281.45
2019-03-28T03:13:34.115Z,101288.20
2019-03-28T03:16:01.875Z,101294.98
2019-03-28T03:18:29.747Z,101299.45
2019-03-28T03:20:57.507Z,101300.01
2019-03-28T03:23:25.269Z,101309.27
2019-03-28T03:25:53.136Z,101306.30
2019-03-28T03:28:21.718Z,101314.33
2019-03-28T03:30:49.540Z,101319.17
2019-03-28T03:33:17.557Z,101321.59
2019-03-28T03:35:45.320Z,101317.97
2019-03-28T03:38:19.941Z,101322.28
2019-03-28T03:40:47.809Z,101329.27
2019-03-28T03:43:15.575Z,101338.38
2019-03-28T03:45:43.338Z,101339.11
2019-03-28T03:48:11.988Z,101346.66
2019-03-28T03:50:39.999Z,101348.75
2019-03-28T03:53:09.603Z,101359.23
2019-03-28T03:55:37.672Z,101366.22
2019-03-28T03:58:15.591Z,101371.09
2019-03-28T04:00:35.552Z,101372.19
2019-03-28T04:03:03.636Z,101387.61
2019-03-28T04:05:31.613Z,101381.69
2019-03-28T04:08:00.137Z,101387.24
2019-03-28T04:10:28.384Z,101393.37
2019-03-28T04:12:56.237Z,101395.27
2019-03-28T04:15:24.306Z,101403.20
2019-03-28T04:17:52.286Z,101409.55
2019-03-28T04:20:20.448Z,101403.69
2019-03-28T04:22:48.420Z,101411.08
2019-03-28T04:25:16.497Z,101422.78
2019-03-28T04:27:44.283Z,101419.40
2019-03-28T04:30:12.018Z,101426.02
2019-03-28T04:32:40.600Z,101426.48
2019-03-28T04:35:08.565Z,101428.44
2019-03-28T04:37:36.545Z,101428.05
2019-03-28T04:40:06.358Z,101430.19
2019-03-28T04:42:34.925Z,101419.22
2019-03-28T04:45:05.511Z,101436.05
2019-03-28T04:47:33.125Z,101432.37
2019-03-28T04:50:00.891Z,101432.85
2019-03-28T04:52:31.867Z,101431.22
2019-03-28T04:54:58.966Z,101436.26
2019-03-28T04:57:26.940Z,101443.74
2019-03-28T04:59:54.698Z,101435.05
2019-03-28T05:02:23.284Z,101442.88
2019-03-28T05:04:51.252Z,101455.13
2019-03-28T05:07:21.678Z,101454.85
2019-03-28T05:09:50.317Z,101460.69
2019-03-28T05:12:18.231Z,101464.92
2019-03-28T05:14:46.097Z,101462.18
2019-03-28T05:17:14.403Z,101474.09
2019-03-28T05:19:42.334Z,101472.72
2019-03-28T05:22:10.127Z,101477.92
2019-03-28T05:24:38.990Z,101484.67
2019-03-28T05:27:07.380Z,101481.48
2019-03-28T05:29:35.453Z,101483.30
2019-03-28T05:32:03.408Z,101481.33
2019-03-28T05:34:31.171Z,101486.77
2019-03-28T05:36:59.149Z,101484.84
2019-03-28T05:39:27.116Z,101495.33
2019-03-28T05:41:54.878Z,101490.66
2019-03-28T05:44:22.642Z,101501.23
2019-03-28T05:46:50.407Z,101502.73
2019-03-28T05:49:18.369Z,101508.47
2019-03-28T05:51:46.648Z,101499.52
2019-03-28T05:54:16.843Z,101516.05
2019-03-28T05:56:44.714Z,101515.92
2019-03-28T05:59:12.578Z,101509.48
2019-03-28T06:01:41.059Z,101513.34
2019-03-28T06:04:09.165Z,101515.66
2019-03-28T06:06:37.307Z,101527.66
2019-03-28T06:09:06.193Z,101531.41
2019-03-28T06:11:33.751Z,101529.73
2019-03-28T06:14:01.618Z,101543.85
2019-03-28T06:16:29.380Z,101531.22
2019-03-28T06:18:57.157Z,101527.43
2019-03-28T06:21:24.909Z,101543.98
2019-03-28T06:23:52.884Z,101548.42
2019-03-28T06:26:20.754Z,101549.13
2019-03-28T06:28:48.611Z,101547.79
2019-03-28T06:31:16.376Z,101559.25
2019-03-28T06:33:44.242Z,101547.94
2019-03-28T06:36:12.311Z,101558.34
2019-03-28T06:38:40.078Z,101556.13
2019-03-28T06:41:07.841Z,101554.03
2019-03-28T06:43:35.806Z,101563.97
2019-03-28T06:46:03.579Z,101566.13
2019-03-28T06:48:31.541Z,101566.03
2019-03-28T06:50:59.202Z,101569.37
2019-03-28T06:53:28.401Z,101565.53
2019-03-28T06:55:56.162Z,101575.89
2019-03-28T06:58:24.035Z,101566.91
2019-03-28T07:00:52.404Z,101575.89
2019-03-28T07:03:20.169Z,101573.69
2019-03-28T07:05:48.424Z,101584.52
2019-03-28T07:08:16.209Z,101582.45
2019-03-28T07:10:43.874Z,101587.75
2019-03-28T07:13:11.739Z,101598.20
2019-03-28T07:15:39.501Z,101591.70
2019-03-28T07:18:07.368Z,101586.33
2019-03-28T07:20:35.029Z,101599.44
2019-03-28T07:23:02.788Z,101589.05
2019-03-28T07:25:30.869Z,101613.99
2019-03-28T07:27:58.626Z,101607.08
2019-03-28T07:30:26.494Z,101607.22
2019-03-28T07:32:54.257Z,101612.53
2019-03-28T07:35:22.127Z,101619.67
2019-03-28T07:37:50.096Z,101621.16
2019-03-28T07:40:17.859Z,101628.07
2019-03-28T07:42:45.719Z,101619.73
2019-03-28T07:45:13.484Z,101626.39
2019-03-28T07:47:41.270Z,101629.20
2019-03-28T07:50:09.012Z,101628.14
2019-03-28T07:52:37.392Z,101628.22
2019-03-28T07:55:05.868Z,101629.91
2019-03-28T07:57:33.642Z,101628.28
2019-03-28T08:00:04.498Z,101629.75
2019-03-28T08:02:32.039Z,101633.86
2019-03-28T08:05:01.490Z,101634.75
2019-03-28T08:07:30.321Z,101632.94
2019-03-28T08:09:58.086Z,101635.27
2019-03-28T08:12:25.846Z,101635.73
2019-03-28T08:14:53.615Z,101626.45
2019-03-28T08:17:21.478Z,101624.45
2019-03-28T08:19:50.161Z,101623.07
2019-03-28T08:22:19.567Z,101624.17
2019-03-28T08:24:47.329Z,101628.73
2019-03-28T08:27:15.095Z,101625.45
2019-03-28T08:29:42.864Z,101623.50
2019-03-28T08:32:13.686Z,101624.67
2019-03-28T08:34:41.157Z,101631.30
2019-03-28T08:37:08.918Z,101628.70
2019-03-28T08:39:36.675Z,101636.26
2019-03-28T08:42:04.447Z,101629.78
2019-03-28T08:44:32.206Z,101644.03
2019-03-28T08:47:00.175Z,101629.51
2019-03-28T08:49:27.938Z,101634.69
2019-03-28T08:51:55.803Z,101631.51
2019-03-28T08:54:23.971Z,101630.68
2019-03-28T08:56:51.638Z,101627.93
2019-03-28T08:59:19.510Z,101629.84
2019-03-28T09:01:47.776Z,101632.65
2019-03-28T09:04:15.477Z,101635.02
2019-03-28T09:06:43.203Z,101642.38
2019-03-28T09:09:11.048Z,101637.31
2019-03-28T09:11:38.936Z,101645.33
2019-03-28T09:14:06.806Z,101645.02
2019-03-28T09:16:34.573Z,101645.96
2019-03-28T09:19:02.539Z,101651.62
2019-03-28T09:21:30.305Z,101646.14
2019-03-28T09:23:58.061Z,101647.67
2019-03-28T09:26:25.831Z,101646.25
2019-03-28T09:28:53.489Z,101640.94
2019-03-28T09:31:21.256Z,101637.20
2019-03-28T09:33:49.021Z,101633.68
2019-03-28T09:36:17.026Z,101638.23
2019-03-28T09:38:44.951Z,101646.94
2019-03-28T09:41:12.714Z,101641.58
2019-03-28T09:43:54.158Z,101638.75
2019-03-28T09:46:09.984Z,101646.91
2019-03-28T09:48:37.655Z,101647.37
2019-03-28T09:51:05.717Z,101655.42
2019-03-28T09:53:33.795Z,101651.70
2019-03-28T09:56:02.065Z,101660.69
2019-03-28T09:58:30.034Z,101662.91
2019-03-28T10:01:02.999Z,101661.48
2019-03-28T10:03:27.713Z,101655.81
2019-03-28T10:05:55.471Z,101657.28
2019-03-28T10:08:26.110Z,101654.74
2019-03-28T10:10:53.868Z,101662.84
2019-03-28T10:13:22.753Z,101663.27
2019-03-28T10:15:50.519Z,101662.41
2019-03-28T10:18:18.499Z,101662.58
2019-03-28T10:20:46.356Z,101663.09
2019-03-28T10:23:14.133Z,101665.90
2019-03-28T10:25:42.716Z,101669.35
2019-03-28T10:28:10.778Z,101662.34
2019-03-28T10:30:41.300Z,101659.70
2019-03-28T10:33:09.081Z,101659.38
2019-03-28T10:35:36.928Z,101659.46
2019-03-28T10:38:04.800Z,101659.91
2019-03-28T10:40:32.661Z,101665.34
2019-03-28T10:43:00.425Z,101657.52
2019-03-28T10:45:28.297Z,101666.80
2019-03-28T10:47:56.066Z,101656.86
2019-03-28T10:50:24.128Z,101662.02
2019-03-28T10:52:52.606Z,101658.50
2019-03-28T10:55:20.372Z,101657.03
2019-03-28T10:57:48.241Z,101666.72
2019-03-28T11:00:23.856Z,101662.22
2019-03-28T11:02:46.139Z,101658.70
2019-03-28T11:05:14.485Z,101661.63
2019-03-28T11:07:44.007Z,101660.23
2019-03-28T11:10:11.770Z,101659.69
2019-03-28T11:12:39.746Z,101658.22
2019-03-28T11:15:08.316Z,101649.33
2019-03-28T11:17:36.187Z,101654.13
2019-03-28T11:20:05.084Z,101653.34
2019-03-28T11:22:32.533Z,101656.06
2019-03-28T11:25:00.408Z,101652.55
2019-03-28T11:27:28.054Z,101659.72
2019-03-28T11:29:55.775Z,101647.32
2019-03-28T11:32:23.891Z,101650.12
2019-03-28T11:34:51.866Z,101650.05
2019-03-28T11:37:26.412Z,101658.31
2019-03-28T11:39:53.121Z,101646.33
2019-03-28T11:42:21.005Z,101647.95
2019-03-28T11:44:49.161Z,101652.29
2019-03-28T11:47:16.928Z,101645.59
2019-03-28T11:49:44.689Z,101650.61
2019-03-28T11:52:12.663Z,101650.86
2019-03-28T11:54:41.040Z,101647.84
2019-03-28T11:57:08.699Z,101643.03
2019-03-28T11:59:36.466Z,101645.14
2019-03-28T12:02:19.058Z,101642.14
2019-03-28T12:04:34.350Z,101644.69
2019-03-28T12:07:02.108Z,101635.98
2019-03-28T12:09:29.876Z,101646.47
2019-03-28T12:11:57.638Z,101648.91
2019-03-28T12:14:25.603Z,101647.22
2019-03-28T12:16:53.471Z,101640.23
2019-03-28T12:19:21.438Z,101639.22
2019-03-28T12:21:49.200Z,101641.27
2019-03-28T12:24:16.968Z,101638.09
2019-03-28T12:26:44.828Z,101623.25
2019-03-28T12:29:12.606Z,101634.64
2019-03-28T12:31:40.374Z,101637.11
2019-03-28T12:34:08.133Z,101627.31
2019-03-28T12:36:35.987Z,101633.33
2019-03-28T12:39:05.290Z,101639.17
2019-03-28T12:41:32.850Z,101638.98
2019-03-28T12:44:00.823Z,101632.27
2019-03-28T12:46:28.891Z,101629.78
2019-03-28T12:48:56.651Z,101629.84
2019-03-28T12:51:24.720Z,101628.69
2019-03-28T12:53:53.101Z,101632.42
2019-03-28T12:56:20.760Z,101630.89
2019-03-28T12:58:48.859Z,101632.43
2019-03-28T13:01:17.419Z,101633.11
2019-03-28T13:03:46.638Z,101632.08
2019-03-28T13:06:14.704Z,101634.32
2019-03-28T13:08:43.764Z,101627.59
2019-03-28T13:11:11.542Z,101634.27
2019-03-28T13:13:39.716Z,101619.33
2019-03-28T13:16:07.809Z,101616.02
2019-03-28T13:18:37.420Z,101619.70
2019-03-28T13:21:13.443Z,101614.48
2019-03-28T13:23:34.969Z,101617.64
2019-03-28T13:26:02.939Z,101621.20
2019-03-28T13:28:30.701Z,101617.36
2019-03-28T13:30:58.691Z,101622.30
2019-03-28T13:33:26.406Z,101622.36
2019-03-28T13:35:54.304Z,101633.50
2019-03-28T13:38:22.162Z,101625.58
2019-03-28T13:40:49.933Z,101620.27
2019-03-28T13:43:17.900Z,101625.85
2019-03-28T13:45:45.659Z,101635.00
2019-03-28T13:48:13.933Z,101633.05
2019-03-28T13:50:42.008Z,101627.38
2019-03-28T13:53:10.283Z,101631.36
2019-03-28T13:55:38.050Z,101625.55
2019-03-28T13:58:06.059Z,101628.16
2019-03-28T14:00:34.397Z,101625.66
2019-03-28T14:03:02.069Z,101622.00
2019-03-28T14:05:33.003Z,101622.34
2019-03-28T14:08:00.958Z,101628.80
2019-03-28T14:10:28.729Z,101629.09
2019-03-28T14:12:56.697Z,101627.20
2019-03-28T14:15:24.567Z,101629.74
2019-03-28T14:17:53.250Z,101633.63
2019-03-28T14:20:22.482Z,101626.34
2019-03-28T14:22:50.010Z,101629.28
2019-03-28T14:25:17.873Z,101631.88
2019-03-28T14:27:45.742Z,101630.36
2019-03-28T14:30:13.497Z,101633.42
2019-03-28T14:32:52.370Z,101630.68
2019-03-28T14:35:10.975Z,101636.31
2019-03-28T14:37:40.748Z,101636.05
2019-03-28T14:40:08.648Z,101648.17
2019-03-28T14:42:36.512Z,101643.09
2019-03-28T14:45:06.015Z,101656.20
2019-03-28T14:47:33.575Z,101657.04
2019-03-28T14:50:01.822Z,101663.65
2019-03-28T14:52:30.946Z,101664.90
2019-03-28T14:55:01.372Z,101668.33
2019-03-28T14:57:28.534Z,101656.98
2019-03-28T14:59:56.491Z,101664.64
2019-03-28T15:02:24.466Z,101665.88
2019-03-28T15:04:52.138Z,101669.50
2019-03-28T15:07:20.190Z,101671.70
2019-03-28T15:09:48.160Z,101678.47
2019-03-28T15:12:15.926Z,101679.17
2019-03-28T15:14:44.511Z,101681.50
2019-03-28T15:17:12.477Z,101696.33
2019-03-28T15:19:40.342Z,101699.82
2019-03-28T15:22:08.313Z,101711.36
2019-03-28T15:24:36.142Z,101709.17
2019-03-28T15:27:05.101Z,101707.03
2019-03-28T15:29:33.444Z,101709.75
2019-03-28T15:32:01.307Z,101713.92
2019-03-28T15:34:29.186Z,101710.95
2019-03-28T15:36:57.150Z,101707.29
2019-03-28T15:39:26.044Z,101711.45
2019-03-28T15:41:53.902Z,101710.98
2019-03-28T15:44:21.672Z,101712.70
2019-03-28T15:46:49.844Z,101712.29
2019-03-28T15:49:17.810Z,101715.33
2019-03-28T15:51:45.774Z,101718.48
2019-03-28T15:54:14.156Z,101724.28
2019-03-28T15:56:42.429Z,101721.69
2019-03-28T15:59:10.616Z,101727.60
2019-03-28T16:01:39.090Z,101724.16
2019-03-28T16:04:06.650Z,101726.01
2019-03-28T16:06:34.616Z,101733.92
2019-03-28T16:09:04.428Z,101731.59
2019-03-28T16:11:32.082Z,101736.94
2019-03-28T16:13:59.955Z,101737.77
2019-03-28T16:16:28.317Z,101737.23
2019-03-28T16:18:56.398Z,101743.32
2019-03-28T16:21:26.705Z,101741.23
2019-03-28T16:23:54.077Z,101742.66
2019-03-28T16:26:21.926Z,101749.20
2019-03-28T16:28:49.821Z,101759.22
2019-03-28T16:31:17.894Z,101754.30
2019-03-28T16:33:46.161Z,101754.45
2019-03-28T16:36:14.024Z,101764.98
2019-03-28T16:38:41.890Z,101764.31
2019-03-28T16:41:09.651Z,101765.45
2019-03-28T16:43:37.619Z,101769.22
2019-03-28T16:46:07.714Z,101774.88
2019-03-28T16:48:34.896Z,101778.97
2019-03-28T16:51:03.165Z,101784.36
2019-03-28T16:53:31.337Z,101794.25
2019-03-28T16:55:58.896Z,101799.25
2019-03-28T16:58:26.872Z,101794.21
2019-03-28T17:00:55.145Z,101807.59
2019-03-28T17:03:23.216Z,101800.81
2019-03-28T17:05:50.876Z,101808.59
2019-03-28T17:08:18.645Z,101811.20
2019-03-28T17:10:47.733Z,101811.27
2019-03-28T17:13:15.601Z,101820.19
2019-03-28T17:15:43.468Z,101829.98
2019-03-28T17:18:11.228Z,101827.87
2019-03-28T17:20:41.156Z,101835.79
2019-03-28T17:23:09.563Z,101844.09
2019-03-28T17:25:44.180Z,101841.69
2019-03-28T17:28:12.119Z,101848.14
2019-03-28T17:30:40.182Z,101846.50
2019-03-28T17:33:09.529Z,101842.50
2019-03-28T17:35:38.604Z,101850.01
2019-03-28T17:38:08.720Z,101848.27
2019-03-28T17:40:37.173Z,101853.11
2019-03-28T17:43:08.625Z,101846.84
2019-03-28T17:45:37.674Z,101853.11
2019-03-28T17:48:10.956Z,101854.02
2019-03-28T17:53:25.018Z,101855.66
2019-03-28T17:55:57.891Z,101859.19
2019-03-28T17:58:31.672Z,101856.13
2019-03-28T18:01:02.190Z,101861.82
2019-03-28T18:03:34.625Z,101863.61
2019-03-28T18:06:03.872Z,101863.24
2019-03-28T18:08:31.929Z,101869.58
2019-03-28T18:11:00.502Z,101868.40
2019-03-28T18:13:28.701Z,101868.11
2019-03-28T18:15:58.200Z,101869.51
2019-03-28T18:18:25.857Z,101862.30
2019-03-28T18:20:53.824Z,101865.27
2019-03-28T18:23:21.798Z,101867.10
2019-03-28T18:25:49.762Z,101867.67
2019-03-28T18:28:17.742Z,101858.58
2019-03-28T18:30:45.938Z,101868.14
2019-03-28T18:33:14.293Z,101865.84
2019-03-28T18:35:42.150Z,101867.89
2019-03-28T18:38:11.152Z,101864.13
2019-03-28T18:40:39.113Z,101865.41
2019-03-28T18:43:07.086Z,101877.28
2019-03-28T18:45:35.049Z,101872.95
2019-03-28T18:48:03.021Z,101871.52
2019-03-28T18:50:31.089Z,101878.98
2019-03-28T18:53:00.188Z,101875.92
2019-03-28T18:55:28.261Z,101880.55
2019-03-28T18:57:57.041Z,101875.79
2019-03-28T19:00:25.329Z,101876.96
2019-03-28T19:02:53.289Z,101871.25
2019-03-28T19:05:21.259Z,101879.74
2019-03-28T19:07:49.534Z,101881.83
2019-03-28T19:10:17.499Z,101883.23
2019-03-28T19:12:45.362Z,101874.50
2019-03-28T19:15:13.434Z,101879.69
2019-03-28T19:17:41.412Z,101879.52
2019-03-28T19:20:10.000Z,101877.91
2019-03-28T19:22:38.063Z,101877.37
2019-03-28T19:25:06.963Z,101874.95
2019-03-28T19:27:34.715Z,101879.22
2019-03-28T19:30:03.605Z,101875.23
2019-03-28T19:32:32.348Z,101874.41
2019-03-28T19:35:02.947Z,101876.98
2019-03-28T19:37:30.067Z,101875.10
2019-03-28T19:39:58.050Z,101874.51
2019-03-28T19:42:26.105Z,101876.55
2019-03-28T19:44:54.078Z,101879.16
2019-03-28T19:47:22.047Z,101881.89
2019-03-28T19:49:50.336Z,101882.41
2019-03-28T19:52:18.398Z,101882.15
2019-03-28T19:54:46.466Z,101887.97
2019-03-28T19:57:14.430Z,101897.99
2019-03-28T19:59:42.402Z,101892.33
2019-03-28T20:02:14.036Z,101898.55
2019-03-28T20:04:40.175Z,101902.05
2019-03-28T20:07:21.033Z,101898.37
2019-03-28T20:09:37.757Z,101897.14
2019-03-28T20:12:05.825Z,101899.90
2019-03-28T20:14:33.793Z,101899.70
2019-03-28T20:17:01.763Z,101903.30
2019-03-28T20:19:29.831Z,101905.42
2019-03-28T20:21:59.480Z,101901.72
2019-03-28T20:24:27.203Z,101910.82
2019-03-28T20:26:55.531Z,101910.34
2019-03-28T20:29:24.162Z,101907.39
2019-03-28T20:31:52.238Z,101913.80
2019-03-28T20:34:20.206Z,101916.36
2019-03-28T20:36:48.178Z,101920.45
2019-03-28T20:39:16.239Z,101925.66
2019-03-28T20:41:44.310Z,101925.48
2019-03-28T20:44:13.206Z,101930.78
2019-03-28T20:46:41.286Z,101928.37
2019-03-28T20:49:09.239Z,101936.81
2019-03-28T20:51:37.209Z,101936.22
2019-03-28T20:54:07.799Z,101934.75
2019-03-28T20:56:35.505Z,101936.00
2019-03-28T20:59:03.469Z,101938.78
2019-03-28T21:01:31.953Z,101944.22
2019-03-28T21:03:59.821Z,101941.13
2019-03-28T21:06:27.786Z,101952.72
2019-03-28T21:08:55.855Z,101945.63
2019-03-28T21:11:23.830Z,101943.59
2019-03-28T21:13:51.902Z,101944.19
2019-03-28T21:16:19.689Z,101942.66
2019-03-28T21:18:47.733Z,101942.03
2019-03-28T21:21:15.704Z,101939.66
2019-03-28T21:23:43.774Z,101939.77
2019-03-28T21:26:11.852Z,101938.23
2019-03-28T21:28:47.225Z,101936.62
2019-03-28T21:31:09.417Z,101938.64
2019-03-28T21:33:37.594Z,101940.99
2019-03-28T21:36:05.664Z,101944.92
2019-03-28T21:38:33.735Z,101949.42
2019-03-28T21:41:01.698Z,101946.35
2019-03-28T21:43:30.776Z,101947.44
2019-03-28T21:45:58.867Z,101938.24
2019-03-28T21:48:26.945Z,101945.67
2019-03-28T21:50:54.902Z,101947.34
2019-03-28T21:53:23.595Z,101946.23
2019-03-28T21:55:55.428Z,101951.51
2019-03-28T21:58:20.758Z,101949.02
2019-03-28T22:00:49.245Z,101947.86
2019-03-28T22:03:17.224Z,101950.73
2019-03-28T22:05:45.378Z,101948.23
2019-03-28T22:08:14.476Z,101953.33
2019-03-28T22:10:43.074Z,101947.75
2019-03-28T22:13:12.357Z,101948.17
2019-03-28T22:15:40.428Z,101945.77
2019-03-28T22:18:08.398Z,101944.95
2019-03-28T22:20:36.373Z,101943.16
2019-03-28T22:23:04.339Z,101939.16
2019-03-28T22:25:32.407Z,101941.91
2019-03-28T22:28:00.486Z,101940.22
2019-03-28T22:30:28.447Z,101941.73
2019-03-28T22:32:57.228Z,101936.70
2019-03-28T22:35:25.955Z,101933.98
2019-03-28T22:37:54.765Z,101931.03
2019-03-28T22:40:22.671Z,101933.30
2019-03-28T22:42:50.745Z,101928.70
2019-03-28T22:45:19.533Z,101925.73
2019-03-28T22:47:47.501Z,101929.84
2019-03-28T22:50:15.365Z,101929.67
2019-03-28T22:52:43.642Z,101931.83
2019-03-28T22:55:11.811Z,101929.81
2019-03-28T22:57:39.680Z,101925.67
2019-03-28T23:00:12.668Z,101917.41
2019-03-28T23:02:42.581Z,101923.00
2019-03-28T23:05:10.238Z,101919.91
2019-03-28T23:07:38.314Z,101921.64
2019-03-28T23:10:06.996Z,101921.64
2019-03-28T23:12:35.058Z,101925.19
2019-03-28T23:15:05.807Z,101928.53
2019-03-28T23:17:33.463Z,101928.53
2019-03-28T23:20:01.945Z,101926.72
2019-03-28T23:22:29.706Z,101933.36
2019-03-28T23:24:57.581Z,101936.70
2019-03-28T23:27:25.387Z,101934.83
2019-03-28T23:29:53.205Z,101937.84
2019-03-28T23:32:20.965Z,101938.47
2019-03-28T23:34:49.079Z,101941.81
2019-03-28T23:37:24.776Z,101945.05
2019-03-28T23:39:46.406Z,101942.52
2019-03-28T23:42:17.582Z,101939.61
2019-03-28T23:44:43.985Z,101945.56
2019-03-28T23:47:11.855Z,101944.80
2019-03-28T23:49:40.595Z,101947.03
2019-03-28T23:52:08.709Z,101941.44
2019-03-28T23:54:36.885Z,101946.78
2019-03-28T23:57:04.849Z,101942.41
2019-03-28T23:59:33.641Z,101936.00
